createdAt,value
2022-10-18T00:01:42.688Z,15.38
2022-10-18T00:04:10.683Z,17.95
2022-10-18T00:06:41.206Z,17.85
2022-10-18T00:09:11.700Z,15.57
2022-10-18T00:11:41.486Z,15.05
2022-10-18T00:14:09.837Z,21.42
2022-10-18T00:16:37.778Z,17.73
2022-10-18T00:19:05.740Z,19.08
2022-10-18T00:21:33.768Z,16.13
2022-10-18T00:24:01.701Z,18.15
2022-10-18T00:26:32.415Z,16.38
2022-10-18T00:29:05.223Z,14.90
2022-10-18T00:31:35.004Z,14.27
2022-10-18T00:34:05.004Z,15.38
2022-10-18T00:36:35.215Z,16.25
2022-10-18T00:39:04.195Z,15.40
2022-10-18T00:41:34.464Z,14.70
2022-10-18T00:44:05.987Z,18.00
2022-10-18T00:46:35.498Z,16.90
2022-10-18T00:49:06.405Z,17.23
2022-10-18T00:51:39.479Z,18.90
2022-10-18T00:54:07.528Z,24.13
2022-10-18T00:56:35.926Z,14.70
2022-10-18T00:59:05.441Z,16.75
2022-10-18T01:01:33.370Z,13.68
2022-10-18T01:04:01.900Z,13.63
2022-10-18T01:06:30.727Z,16.27
2022-10-18T01:09:10.956Z,15.77
2022-10-18T01:11:55.609Z,15.07
2022-10-18T01:14:36.558Z,15.70
2022-10-18T01:17:13.151Z,16.35
2022-10-18T01:20:08.597Z,14.95
2022-10-18T01:22:40.492Z,14.20
2022-10-18T01:25:21.798Z,16.25
2022-10-18T01:27:57.680Z,15.48
2022-10-18T01:30:39.072Z,17.70
2022-10-18T01:33:16.773Z,14.73
2022-10-18T01:35:50.035Z,16.52
2022-10-18T01:40:51.434Z,19.20
2022-10-18T01:43:22.614Z,17.90
2022-10-18T01:45:55.546Z,17.95
2022-10-18T01:48:23.882Z,19.25
2022-10-18T01:50:53.221Z,23.40
2022-10-18T01:53:31.341Z,18.73
2022-10-18T01:56:38.652Z,19.42
2022-10-18T01:59:23.408Z,22.02
2022-10-18T02:02:02.535Z,20.50
2022-10-18T02:04:35.720Z,19.02
2022-10-18T02:07:08.461Z,17.80
2022-10-18T02:09:42.531Z,18.35
2022-10-18T02:12:14.598Z,24.17
2022-10-18T02:14:44.610Z,20.02
2022-10-18T02:17:16.193Z,23.95
2022-10-18T02:19:47.331Z,19.42
2022-10-18T02:22:17.406Z,18.80
2022-10-18T02:24:49.514Z,23.50
2022-10-18T02:27:17.732Z,20.40
2022-10-18T02:29:46.562Z,22.88
2022-10-18T02:32:21.034Z,20.98
2022-10-18T02:34:54.935Z,19.63
2022-10-18T02:37:23.659Z,25.38
2022-10-18T02:39:52.752Z,23.23
2022-10-18T02:42:20.640Z,21.17
2022-10-18T02:44:48.530Z,23.02
2022-10-18T02:47:17.784Z,24.35
2022-10-18T02:49:45.664Z,25.10
2022-10-18T02:52:13.549Z,24.27
2022-10-18T02:54:41.457Z,22.33
2022-10-18T02:57:09.532Z,22.67
2022-10-18T02:59:37.522Z,28.92
2022-10-18T03:02:05.504Z,23.92
2022-10-18T03:04:35.852Z,26.33
2022-10-18T03:07:03.953Z,25.40
2022-10-18T03:09:31.849Z,20.23
2022-10-18T03:11:59.824Z,24.52
2022-10-18T03:14:27.679Z,21.00
2022-10-18T03:16:55.753Z,25.15
2022-10-18T03:19:23.826Z,25.48
2022-10-18T03:21:53.062Z,22.63
2022-10-18T03:24:21.019Z,20.40
2022-10-18T03:26:48.900Z,24.63
2022-10-18T03:29:16.831Z,24.33
2022-10-18T03:31:44.749Z,26.25
2022-10-18T03:34:12.696Z,20.77
2022-10-18T03:36:41.363Z,28.73
2022-10-18T03:39:12.206Z,22.95
2022-10-18T03:41:40.183Z,23.45
2022-10-18T03:44:08.277Z,22.90
2022-10-18T03:46:36.198Z,26.25
2022-10-18T03:49:04.642Z,29.80
2022-10-18T03:51:32.592Z,24.48
2022-10-18T03:54:00.507Z,27.38
2022-10-18T03:56:29.748Z,26.75
2022-10-18T03:58:58.076Z,29.10
2022-10-18T04:01:26.012Z,28.73
2022-10-18T04:03:53.958Z,28.15
2022-10-18T04:06:21.871Z,27.80
2022-10-18T04:08:49.974Z,28.58
2022-10-18T04:11:17.847Z,30.63
2022-10-18T04:13:47.196Z,29.38
2022-10-18T04:16:15.085Z,31.30
2022-10-18T04:18:44.060Z,28.48
2022-10-18T04:21:11.993Z,29.40
2022-10-18T04:23:39.914Z,29.20
2022-10-18T04:26:07.863Z,27.73
2022-10-18T04:28:39.889Z,29.77
2022-10-18T04:31:10.038Z,31.75
2022-10-18T04:33:38.046Z,30.38
2022-10-18T04:36:06.282Z,32.72
2022-10-18T04:38:34.381Z,31.95
2022-10-18T04:41:02.234Z,32.72
2022-10-18T04:43:30.449Z,29.08
2022-10-18T04:45:58.483Z,31.25
2022-10-18T04:48:27.883Z,31.55
2022-10-18T04:50:55.857Z,31.77
2022-10-18T04:53:23.783Z,33.25
2022-10-18T04:55:52.327Z,33.22
2022-10-18T04:58:20.789Z,31.30
2022-10-18T05:00:48.829Z,30.85
2022-10-18T05:03:17.005Z,36.65
2022-10-18T05:06:02.734Z,32.90
2022-10-18T05:08:31.611Z,31.58
2022-10-18T05:10:59.894Z,36.72
2022-10-18T05:13:28.163Z,31.60
2022-10-18T05:15:56.233Z,36.10
2022-10-18T05:18:24.210Z,31.55
2022-10-18T05:20:53.525Z,30.88
2022-10-18T05:23:21.448Z,35.10
2022-10-18T05:25:49.532Z,36.95
2022-10-18T05:31:08.287Z,35.78
2022-10-18T05:33:36.534Z,37.30
2022-10-18T05:36:06.219Z,36.03
2022-10-18T05:38:34.232Z,34.60
2022-10-18T05:41:05.369Z,38.20
2022-10-18T05:43:33.303Z,35.28
2022-10-18T05:46:01.364Z,37.13
2022-10-18T05:48:29.271Z,35.28
2022-10-18T05:50:59.138Z,39.47
2022-10-18T05:53:36.688Z,38.55
2022-10-18T05:56:06.109Z,32.10
2022-10-18T05:58:34.081Z,40.55
2022-10-18T06:01:02.626Z,39.15
2022-10-18T06:03:31.332Z,39.00
2022-10-18T06:06:02.163Z,37.08
2022-10-18T06:08:31.665Z,36.42
2022-10-18T06:11:00.118Z,35.72
2022-10-18T06:13:30.075Z,33.78
2022-10-18T06:16:00.444Z,37.72
2022-10-18T06:18:29.709Z,38.72
2022-10-18T06:20:59.065Z,34.95
2022-10-18T06:23:27.202Z,37.15
2022-10-18T06:25:59.786Z,38.08
2022-10-18T06:28:28.392Z,40.60
2022-10-18T06:30:56.433Z,42.50
2022-10-18T06:33:24.578Z,44.60
2022-10-18T06:35:57.327Z,48.30
2022-10-18T06:38:25.422Z,47.28
2022-10-18T06:40:53.990Z,41.40
2022-10-18T06:43:23.672Z,42.08
2022-10-18T06:45:52.152Z,42.08
2022-10-18T06:48:21.051Z,43.33
2022-10-18T06:50:53.897Z,41.78
2022-10-18T06:53:21.855Z,38.38
2022-10-18T06:55:49.852Z,46.22
2022-10-18T06:58:17.997Z,42.28
2022-10-18T07:00:47.579Z,39.70
2022-10-18T07:03:15.498Z,35.42
2022-10-18T07:05:49.883Z,43.70
2022-10-18T07:08:21.374Z,43.45
2022-10-18T07:10:53.844Z,48.35
2022-10-18T07:13:37.823Z,44.17
2022-10-18T07:16:11.563Z,42.90
2022-10-18T07:18:43.511Z,42.25
2022-10-18T07:21:14.155Z,43.55
2022-10-18T07:23:43.499Z,36.78
2022-10-18T07:26:15.318Z,47.65
2022-10-18T07:28:44.180Z,40.58
2022-10-18T07:31:14.209Z,41.92
2022-10-18T07:33:42.936Z,35.10
2022-10-18T07:36:13.089Z,34.13
2022-10-18T07:38:41.536Z,39.97
2022-10-18T07:41:12.207Z,35.97
2022-10-18T07:43:43.120Z,41.30
2022-10-18T07:46:11.111Z,42.97
2022-10-18T07:48:40.612Z,42.97
2022-10-18T07:51:08.889Z,41.45
2022-10-18T07:53:37.144Z,43.92
2022-10-18T07:56:09.736Z,38.38
2022-10-18T07:58:38.577Z,35.83
2022-10-18T08:01:08.308Z,43.97
2022-10-18T08:03:36.828Z,34.92
2022-10-18T08:06:09.034Z,39.20
2022-10-18T08:08:38.250Z,36.85
2022-10-18T08:11:08.679Z,41.40
2022-10-18T08:13:37.189Z,38.53
2022-10-18T08:16:07.629Z,34.33
2022-10-18T08:18:36.138Z,36.53
2022-10-18T08:21:07.566Z,46.65
2022-10-18T08:23:36.283Z,27.85
2022-10-18T08:26:05.455Z,40.13
2022-10-18T08:28:33.835Z,30.20
2022-10-18T08:31:04.754Z,45.90
2022-10-18T08:33:33.309Z,25.08
2022-10-18T08:36:05.708Z,37.75
2022-10-18T08:38:37.303Z,27.27
2022-10-18T08:41:40.951Z,31.75
2022-10-18T08:44:15.909Z,23.42
2022-10-18T08:46:48.033Z,22.13
2022-10-18T08:49:28.363Z,27.50
2022-10-18T08:51:57.709Z,28.30
2022-10-18T08:54:33.030Z,27.75
2022-10-18T08:57:02.685Z,25.20
2022-10-18T08:59:38.908Z,26.77
2022-10-18T09:02:18.183Z,30.65
2022-10-18T09:07:34.393Z,25.20
2022-10-18T09:10:09.543Z,30.25
2022-10-18T09:12:57.203Z,27.50
2022-10-18T09:15:32.839Z,22.80
2022-10-18T09:18:14.017Z,30.35
2022-10-18T09:20:51.764Z,23.25
2022-10-18T09:23:21.578Z,22.73
2022-10-18T09:25:57.013Z,30.88
2022-10-18T09:28:37.290Z,28.60
2022-10-18T09:31:09.643Z,27.30
2022-10-18T09:33:47.680Z,30.88
2022-10-18T09:36:20.384Z,28.00
2022-10-18T09:38:51.785Z,23.92
2022-10-18T09:41:25.818Z,24.35
2022-10-18T09:43:59.882Z,22.75
2022-10-18T09:46:32.303Z,22.80
2022-10-18T09:49:04.772Z,22.10
2022-10-18T09:51:37.296Z,31.30
2022-10-18T09:54:16.947Z,22.23
2022-10-18T09:56:51.040Z,33.55
2022-10-18T09:59:33.554Z,19.48
2022-10-18T10:02:05.844Z,23.02
2022-10-18T10:04:34.132Z,20.75
2022-10-18T10:07:03.345Z,17.77
2022-10-18T10:09:38.319Z,21.85
2022-10-18T10:12:27.151Z,18.13
2022-10-18T10:14:55.091Z,18.58
2022-10-18T10:17:26.070Z,18.55
2022-10-18T10:20:00.443Z,17.13
2022-10-18T10:22:35.972Z,24.25
2022-10-18T10:25:04.514Z,18.15
2022-10-18T10:27:41.033Z,17.52
2022-10-18T10:30:25.406Z,23.38
2022-10-18T10:32:54.972Z,20.40
2022-10-18T10:35:42.233Z,22.00
2022-10-18T10:38:25.088Z,22.00
2022-10-18T10:40:53.405Z,23.58
2022-10-18T10:43:42.249Z,21.05
2022-10-18T10:46:12.446Z,17.80
2022-10-18T10:48:50.499Z,16.70
2022-10-18T10:51:29.759Z,20.52
2022-10-18T10:54:03.641Z,11.18
2022-10-18T10:56:34.215Z,11.40
2022-10-18T10:59:16.776Z,13.68
2022-10-18T11:01:45.215Z,11.65
2022-10-18T11:04:30.357Z,13.25
2022-10-18T11:09:49.528Z,15.40
2022-10-18T11:12:34.590Z,12.45
2022-10-18T11:15:20.174Z,13.52
2022-10-18T11:17:56.556Z,11.57
2022-10-18T11:20:30.404Z,13.02
2022-10-18T11:23:01.739Z,13.65
2022-10-18T11:25:47.696Z,12.07
2022-10-18T11:28:24.835Z,11.60
2022-10-18T11:31:11.568Z,11.38
2022-10-18T11:34:08.156Z,11.15
2022-10-18T11:36:56.470Z,10.70
2022-10-18T11:39:47.691Z,11.55
2022-10-18T11:42:24.811Z,14.85
2022-10-18T11:45:02.827Z,11.40
2022-10-18T11:47:41.919Z,15.27
2022-10-18T11:50:18.991Z,11.15
2022-10-18T11:52:57.630Z,10.55
2022-10-18T11:55:37.788Z,14.43
2022-10-18T11:58:19.278Z,11.27
2022-10-18T12:00:52.336Z,10.73
2022-10-18T12:03:31.461Z,9.95
2022-10-18T12:06:04.820Z,12.27
2022-10-18T12:08:37.236Z,12.30
2022-10-18T12:11:13.715Z,11.13
2022-10-18T12:13:47.567Z,9.70
2022-10-18T12:16:16.543Z,11.60
2022-10-18T12:21:29.881Z,8.48
2022-10-18T12:24:01.119Z,13.25
2022-10-18T12:26:31.031Z,8.93
2022-10-18T12:29:13.580Z,11.05
2022-10-18T12:31:45.443Z,10.00
2022-10-18T12:34:27.059Z,9.98
2022-10-18T12:37:15.166Z,6.28
2022-10-18T12:40:08.632Z,11.25
2022-10-18T12:42:41.548Z,10.55
2022-10-18T12:45:24.082Z,10.40
2022-10-18T12:47:52.767Z,9.15
2022-10-18T12:50:31.843Z,10.55
2022-10-18T12:53:07.001Z,20.52
2022-10-18T12:55:37.834Z,8.07
2022-10-18T12:58:23.137Z,9.82
2022-10-18T13:00:56.836Z,44.45
2022-10-18T13:03:40.890Z,9.15
2022-10-18T13:06:10.233Z,7.72
2022-10-18T13:08:42.054Z,6.65
2022-10-18T13:11:30.216Z,8.40
2022-10-18T13:14:44.098Z,4.25
2022-10-18T13:17:31.424Z,8.27
2022-10-18T13:20:25.517Z,4.88
2022-10-18T13:23:11.260Z,9.05
2022-10-18T13:25:56.024Z,5.25
2022-10-18T13:28:31.949Z,15.93
2022-10-18T13:31:10.939Z,20.55
2022-10-18T13:33:41.698Z,11.68
2022-10-18T13:36:24.645Z,10.90
2022-10-18T13:39:07.315Z,5.22
2022-10-18T13:42:10.957Z,7.35
2022-10-18T13:44:40.149Z,4.75
2022-10-18T13:47:15.083Z,9.18
2022-10-18T13:50:00.575Z,5.65
2022-10-18T13:52:44.244Z,5.43
2022-10-18T13:55:34.829Z,9.90
2022-10-18T13:58:13.253Z,9.48
2022-10-18T14:01:03.376Z,6.90
2022-10-18T14:04:00.576Z,4.68
2022-10-18T14:06:34.864Z,9.05
2022-10-18T14:09:19.293Z,8.32
2022-10-18T14:12:02.479Z,7.22
2022-10-18T14:14:36.461Z,4.93
2022-10-18T14:17:12.047Z,9.05
2022-10-18T14:19:47.952Z,6.65
2022-10-18T14:22:21.917Z,7.30
2022-10-18T14:24:53.931Z,6.68
2022-10-18T14:27:24.808Z,8.02
2022-10-18T14:30:10.912Z,11.30
2022-10-18T14:32:38.906Z,11.65
2022-10-18T14:35:32.129Z,5.35
2022-10-18T14:38:01.974Z,4.97
2022-10-18T14:40:33.208Z,6.88
2022-10-18T14:43:12.398Z,8.20
2022-10-18T14:48:14.095Z,6.18
2022-10-18T14:50:43.905Z,5.18
2022-10-18T14:53:16.781Z,6.68
2022-10-18T14:55:44.835Z,5.55
2022-10-18T14:58:17.099Z,6.65
2022-10-18T15:00:48.530Z,5.20
2022-10-18T15:03:18.548Z,4.35
2022-10-18T15:05:54.683Z,4.93
2022-10-18T15:08:24.624Z,5.18
2022-10-18T15:10:53.321Z,2.75
2022-10-18T15:13:23.104Z,3.50
2022-10-18T15:15:51.192Z,5.22
2022-10-18T15:18:22.563Z,3.78
2022-10-18T15:21:21.063Z,5.25
2022-10-18T15:23:49.431Z,4.75
2022-10-18T15:26:25.396Z,4.53
2022-10-18T15:29:00.402Z,5.57
2022-10-18T15:31:34.619Z,3.97
2022-10-18T15:34:10.666Z,6.65
2022-10-18T15:36:39.068Z,5.50
2022-10-18T15:39:09.599Z,4.85
2022-10-18T15:41:42.299Z,6.90
2022-10-18T15:44:22.347Z,7.82
2022-10-18T15:46:52.893Z,6.32
2022-10-18T15:49:51.250Z,9.02
2022-10-18T15:52:39.009Z,5.63
2022-10-18T15:55:56.233Z,5.20
2022-10-18T15:58:27.218Z,6.57
2022-10-18T16:00:59.708Z,7.32
2022-10-18T16:03:28.739Z,6.25
2022-10-18T16:06:00.743Z,6.32
2022-10-18T16:08:30.653Z,6.72
2022-10-18T16:10:59.769Z,8.52
2022-10-18T16:13:27.906Z,6.55
2022-10-18T16:15:57.319Z,5.60
2022-10-18T16:18:26.151Z,7.13
2022-10-18T16:20:54.140Z,4.80
2022-10-18T16:23:24.603Z,4.55
2022-10-18T16:25:53.375Z,4.43
2022-10-18T16:28:23.257Z,5.57
2022-10-18T16:30:55.951Z,6.70
2022-10-18T16:33:26.127Z,5.65
2022-10-18T16:35:54.773Z,5.38
2022-10-18T16:38:32.514Z,6.28
2022-10-18T16:41:04.621Z,9.25
2022-10-18T16:43:33.157Z,8.25
2022-10-18T16:46:01.798Z,6.30
2022-10-18T16:48:31.494Z,6.97
2022-10-18T16:50:59.738Z,5.97
2022-10-18T16:53:28.131Z,7.38
2022-10-18T16:55:58.302Z,6.40
2022-10-18T16:58:27.777Z,5.90
2022-10-18T17:00:56.226Z,4.10
2022-10-18T17:03:24.896Z,7.45
2022-10-18T17:05:56.161Z,7.50
2022-10-18T17:08:26.324Z,10.20
2022-10-18T17:10:56.882Z,7.97
2022-10-18T17:13:25.724Z,6.25
2022-10-18T17:15:54.105Z,9.90
2022-10-18T17:18:26.350Z,10.95
2022-10-18T17:20:56.499Z,8.90
2022-10-18T17:23:24.482Z,6.78
2022-10-18T17:26:05.308Z,4.75
2022-10-18T17:28:35.293Z,6.65
2022-10-18T17:31:03.305Z,7.97
2022-10-18T17:33:31.359Z,8.48
2022-10-18T17:36:01.483Z,8.18
2022-10-18T17:38:29.557Z,5.57
2022-10-18T17:40:57.510Z,7.15
2022-10-18T17:43:25.791Z,8.50
2022-10-18T17:45:56.955Z,7.55
2022-10-18T17:48:25.646Z,5.55
2022-10-18T17:50:53.975Z,6.03
2022-10-18T17:53:28.462Z,4.43
2022-10-18T17:56:02.446Z,6.38
2022-10-18T17:58:32.028Z,6.45
2022-10-18T18:01:09.424Z,9.52
2022-10-18T18:03:37.378Z,11.65
2022-10-18T18:06:19.306Z,5.25
2022-10-18T18:08:51.869Z,8.52
2022-10-18T18:11:19.829Z,9.10
2022-10-18T18:13:48.150Z,7.53
2022-10-18T18:16:18.082Z,6.35
2022-10-18T18:18:47.118Z,6.43
2022-10-18T18:21:15.263Z,19.58
2022-10-18T18:23:43.250Z,6.05
2022-10-18T18:26:12.600Z,7.38
2022-10-18T18:28:40.730Z,7.85
2022-10-18T18:31:10.224Z,8.48
2022-10-18T18:33:38.717Z,6.30
2022-10-18T18:36:07.710Z,8.20
2022-10-18T18:38:38.353Z,9.52
2022-10-18T18:41:08.335Z,6.13
2022-10-18T18:43:39.649Z,6.22
2022-10-18T18:46:08.368Z,4.93
2022-10-18T18:48:37.387Z,7.90
2022-10-18T18:51:06.957Z,6.97
2022-10-18T18:53:35.122Z,11.27
2022-10-18T18:56:04.626Z,10.15
2022-10-18T18:58:32.643Z,14.07
2022-10-18T19:01:07.618Z,8.38
2022-10-18T19:03:35.901Z,9.57
2022-10-18T19:06:05.472Z,6.03
2022-10-18T19:08:36.081Z,7.82
2022-10-18T19:11:08.038Z,5.50
2022-10-18T19:13:37.373Z,7.03
2022-10-18T19:16:19.632Z,5.55
2022-10-18T19:18:55.194Z,11.90
2022-10-18T19:21:23.946Z,6.15
2022-10-18T19:23:52.175Z,7.95
2022-10-18T19:26:27.100Z,10.88
2022-10-18T19:28:55.407Z,5.75
2022-10-18T19:31:24.927Z,8.48
2022-10-18T19:33:59.335Z,6.22
2022-10-18T19:36:28.569Z,5.50
2022-10-18T19:38:56.880Z,13.68
2022-10-18T19:43:54.032Z,5.70
2022-10-18T19:46:22.183Z,5.45
2022-10-18T19:48:54.001Z,5.50
2022-10-18T19:51:25.517Z,7.68
2022-10-18T19:53:57.215Z,6.20
2022-10-18T19:56:26.799Z,5.70
2022-10-18T19:58:55.514Z,4.35
2022-10-18T20:01:23.634Z,10.00
2022-10-18T20:03:53.026Z,7.78
2022-10-18T20:06:21.752Z,6.22
2022-10-18T20:08:50.397Z,8.52
2022-10-18T20:11:20.089Z,5.93
2022-10-18T20:13:48.239Z,4.72
2022-10-18T20:16:18.293Z,9.23
2022-10-18T20:18:46.342Z,4.03
2022-10-18T20:21:17.721Z,7.00
2022-10-18T20:23:46.034Z,4.97
2022-10-18T20:26:21.708Z,10.50
2022-10-18T20:28:56.126Z,5.75
2022-10-18T20:31:25.694Z,4.55
2022-10-18T20:33:58.994Z,5.65
2022-10-18T20:36:29.612Z,6.18
2022-10-18T20:38:58.667Z,6.28
2022-10-18T20:41:28.980Z,11.73
2022-10-18T20:43:58.877Z,7.72
2022-10-18T20:46:28.144Z,7.68
2022-10-18T20:48:56.124Z,14.05
2022-10-18T20:51:24.537Z,6.05
2022-10-18T20:53:54.306Z,8.57
2022-10-18T20:56:25.195Z,6.07
2022-10-18T20:58:55.684Z,6.10
2022-10-18T21:01:25.618Z,9.57
2022-10-18T21:03:55.637Z,5.93
2022-10-18T21:06:25.269Z,6.03
2022-10-18T21:08:55.754Z,6.38
2022-10-18T21:11:24.518Z,6.03
2022-10-18T21:13:52.825Z,5.70
2022-10-18T21:16:20.880Z,6.10
2022-10-18T21:18:49.451Z,6.20
2022-10-18T21:21:19.175Z,9.55
2022-10-18T21:23:47.443Z,7.65
2022-10-18T21:26:18.402Z,9.05
2022-10-18T21:28:46.903Z,7.20
2022-10-18T21:31:17.280Z,5.75
2022-10-18T21:33:46.869Z,3.95
2022-10-18T21:36:15.691Z,7.88
2022-10-18T21:38:45.415Z,6.40
2022-10-18T21:41:14.569Z,5.43
2022-10-18T21:43:45.823Z,9.77
2022-10-18T21:46:15.102Z,6.88
2022-10-18T21:48:45.132Z,5.50
2022-10-18T21:51:14.255Z,7.85
2022-10-18T21:53:44.592Z,7.75
2022-10-18T21:56:15.134Z,5.15
2022-10-18T21:58:44.851Z,4.97
2022-10-18T22:01:16.355Z,13.10
2022-10-18T22:03:45.886Z,4.18
2022-10-18T22:06:16.239Z,6.43
2022-10-18T22:08:45.886Z,4.72
2022-10-18T22:11:14.674Z,7.70
2022-10-18T22:13:44.414Z,4.40
2022-10-18T22:16:14.358Z,8.48
2022-10-18T22:18:42.774Z,6.10
2022-10-18T22:21:12.193Z,6.63
2022-10-18T22:23:42.412Z,7.93
2022-10-18T22:26:13.534Z,5.18
2022-10-18T22:28:43.155Z,8.35
2022-10-18T22:31:17.706Z,4.40
2022-10-18T22:33:45.861Z,11.40
2022-10-18T22:36:19.181Z,5.15
2022-10-18T22:38:47.114Z,6.70
2022-10-18T22:41:15.262Z,5.55
2022-10-18T22:43:43.663Z,5.05
2022-10-18T22:46:13.233Z,3.80
2022-10-18T22:48:43.584Z,5.50
2022-10-18T22:51:12.222Z,4.43
2022-10-18T22:53:41.786Z,3.45
2022-10-18T22:56:12.260Z,3.80
2022-10-18T22:58:40.192Z,3.85
2022-10-18T23:01:09.791Z,6.22
2022-10-18T23:03:38.382Z,6.05
2022-10-18T23:06:19.838Z,6.20
2022-10-18T23:08:48.219Z,4.80
2022-10-18T23:11:16.855Z,6.65
2022-10-18T23:13:44.957Z,6.63
2022-10-18T23:16:13.070Z,5.22
2022-10-18T23:18:41.198Z,5.72
2022-10-18T23:21:14.038Z,5.05
2022-10-18T23:23:43.614Z,6.40
2022-10-18T23:26:13.637Z,6.10
2022-10-18T23:28:43.503Z,4.07
2022-10-18T23:31:13.367Z,7.72
2022-10-18T23:33:42.188Z,4.70
2022-10-18T23:36:11.781Z,3.88
2022-10-18T23:38:41.027Z,5.30
2022-10-18T23:41:11.681Z,5.10
2022-10-18T23:43:39.988Z,4.47
2022-10-18T23:46:08.260Z,6.75
2022-10-18T23:48:36.478Z,6.28
2022-10-18T23:51:05.224Z,7.28
2022-10-18T23:53:34.810Z,4.47
2022-10-18T23:56:04.570Z,8.07
2022-10-18T23:58:34.182Z,3.50
